Historyczne dane pomiarowe

Dodano dane terminowe – wersja testowa.

Dane z okresu 1951-2019

Wersja bazy: 1.34 [2019-03-16, lista zmian], aktualizacja planowana na 2019-04-15

Dane meteo z obszaru Polski uzyskane na podstawie danych udostępnionych przez Instytut Meteorologii i Gospodarki Wodnej – Państwowy Instytut Badawczy.

 

Wybierz Datę:    

       

TemperaturaWilgotnośćWiatrCiśnienieOpadyŚniegCzas trwania zjawisk
 Stacja t tx tn tng RH VA  wxwx mslp ppp RRR   cm mm wxwxwxwxwxwxwx
2012-07-16 10.4 13.6 7.0 7.8-- 8.0----- 18.1------------
2012-07-17 10.2 14.5 5.3 5.9-- 8.0----- 8.5------------
2012-07-18 12.8 15.5 9.2 9.5-- 7.7----- 0.9------------
2012-07-19 14.5 17.7 11.2 11.7-- 8.0----- 0.7------------
2012-07-20 12.1 15.6 9.0 9.4-- 8.0----- 0.8------------
2012-07-21 10.2 14.8 4.7 5.3-- 0.0----- 1.6------------
2012-07-22 9.9 13.6 6.6 7.0-- 4.7----- 0.1------------
2012-07-23 11.8 18.3 1.1 1.3-- 0.0----- 0.0------------
2012-07-24 13.6 21.6 1.9 2.3-- 0.0----- 0.0------------
2012-07-25 14.3 23.5 7.6 8.2-- 0.0----- 1.1------------
2012-07-26 18.6 23.5 11.3 11.7-- 0.0----- 0.0------------
2012-07-27 18.6 24.8 10.3 10.7-- 3.7----- 0.0------------
2012-07-28 18.8 27.5 11.3 11.8-- 0.0----- 47.1------------
2012-07-29 14.9 18.8 11.3 14.6-- 6.7----- 4.7------------
2012-07-30 13.1 17.4 7.5 7.9-- 2.0----- 0.0------------
2012-07-31 13.2 17.8 7.3 7.9-- 8.0----- 0.0------------
2012-08-01 14.6 19.6 7.3 5.7-- 3.7----- 0.0------------
2012-08-02 17.9 24.5 7.2 5.0-- 0.0----- 6.6------------
2012-08-03 15.6 19.9 10.8 10.1-- 4.0----- 12.6------------
2012-08-04 13.9 21.6 7.8 7.0-- 0.0----- 0.0------------
2012-08-05 16.7 22.9 7.8 6.9-- 0.0----- 0.0------------
2012-08-06 17.6 22.5 11.3 10.4-- 2.7----- 12.3------------
2012-08-07 14.1 18.7 10.8 10.5-- 8.0----- 2.3------------
2012-08-08 10.7 15.6 7.8 7.0-- 0.0----- 0.2------------
2012-08-09 11.1 15.8 4.7 3.7-- 7.7----- 0.4------------
2012-08-10 10.5 14.1 6.3 5.9-- 2.7----- 8.1------------
2012-08-11 8.6 11.5 6.2 6.5-- 8.0----- 6.1------------
2012-08-12 9.8 13.4 7.4 6.2-- 0.7----- 0.0------------
2012-08-13 8.4 14.9 0.1 0.0-- 3.7----- 0.0------------
2012-08-14 9.3 16.6 -0.5 -1.8-- 0.0----- 0.0------------
204.3 ms

 

Źródłem pochodzenia danych jest Instytut Meteorologii i Gospodarki Wodnej – Państwowy Instytut Badawczy. Dane Instytutu Meteorologii i Gospodarki Wodnej – Państwowego Instytutu Badawczego zostały przetworzone.

Dane źródłowe można odnaleźć na stronie https://dane.imgw.pl